Time;durP1;ratioP1;P1;durP2;ratioP2;P2;SDS_P1;SDS_P2;PMS_P1;PMS_P2;Temp;Humidity;BMP_temperature;BMP_pressure;BME280_temperature;BME280_humidity;BME280_pressure;Samples;Min_cycle;Max_cycle;Signal;HPM_P1;HPM_P2
2023/04/16 00:00:34;;;;;;;7.35;2.58;;;;;;;23.28;38.19;99304.31;4331152;33;33928;-62
2023/04/16 00:03:02;;;;;;;5.18;2.60;;;;;;;23.26;38.20;99303.69;4318182;33;34033;-61
2023/04/16 00:05:30;;;;;;;7.68;3.00;;;;;;;23.26;38.18;99300.97;4331511;33;33366;-61
2023/04/16 00:07:57;;;;;;;4.37;2.62;;;;;;;23.26;38.18;99303.69;4330992;33;34066;-61
2023/04/16 00:10:25;;;;;;;8.30;2.62;;;;;;;23.25;38.20;99302.03;4331383;33;33790;-61
2023/04/16 00:12:52;;;;;;;5.40;2.70;;;;;;;23.25;38.17;99304.78;4331206;33;34523;-61
2023/04/16 00:15:20;;;;;;;7.70;2.83;;;;;;;23.24;38.20;99301.22;4331526;33;32968;-61
2023/04/16 00:17:47;;;;;;;5.85;2.72;;;;;;;23.24;38.19;99300.41;4331311;33;34089;-61
2023/04/16 00:20:15;;;;;;;8.65;2.75;;;;;;;23.24;38.14;99298.50;4331470;33;34443;-61
2023/04/16 00:22:42;;;;;;;6.45;2.40;;;;;;;23.24;38.14;99294.97;4330947;33;34045;-61
2023/04/16 00:25:10;;;;;;;6.22;2.80;;;;;;;23.24;38.21;99300.41;4331463;33;34241;-61
2023/04/16 00:27:38;;;;;;;4.32;2.50;;;;;;;23.22;38.21;99303.34;4331197;33;34044;-61
2023/04/16 00:30:06;;;;;;;5.93;2.83;;;;;;;23.23;38.29;99298.75;4331086;33;33980;-61
2023/04/16 00:32:34;;;;;;;5.87;2.50;;;;;;;23.22;38.31;99299.78;4330987;33;34326;-61
2023/04/16 00:35:01;;;;;;;6.72;2.47;;;;;;;23.23;38.29;99306.91;4331434;33;34883;-60
2023/04/16 00:37:29;;;;;;;5.68;2.42;;;;;;;23.22;38.27;99299.78;4330726;33;34881;-61
2023/04/16 00:39:57;;;;;;;4.12;2.20;;;;;;;23.22;38.31;99305.22;4331191;33;33713;-62
2023/04/16 00:42:24;;;;;;;5.82;2.40;;;;;;;23.21;38.28;99309.03;4331403;33;33997;-61
2023/04/16 00:44:52;;;;;;;5.30;2.25;;;;;;;23.22;38.28;99308.78;4317651;33;33519;-60
2023/04/16 00:47:19;;;;;;;7.12;3.05;;;;;;;23.22;38.35;99316.13;4331028;33;33894;-61
2023/04/16 00:49:47;;;;;;;5.80;2.85;;;;;;;23.21;38.39;99298.13;4317922;33;33878;-61
2023/04/16 00:52:14;;;;;;;5.05;2.40;;;;;;;23.21;38.39;99303.59;4317401;33;33702;-61
2023/04/16 00:54:42;;;;;;;6.87;2.97;;;;;;;23.21;38.41;99298.13;4316636;33;34084;-61
2023/04/16 00:57:10;;;;;;;5.95;2.47;;;;;;;23.19;38.42;99298.38;4331213;33;33645;-60
2023/04/16 00:59:37;;;;;;;8.02;2.60;;;;;;;23.21;38.43;99304.41;4317401;33;33643;-61
2023/04/16 01:02:06;;;;;;;4.20;2.40;;;;;;;23.21;38.42;99309.84;4317991;33;34600;-60
2023/04/16 01:04:33;;;;;;;4.90;2.55;;;;;;;23.21;38.42;99306.31;4331228;33;33112;-61
2023/04/16 01:07:01;;;;;;;5.07;2.55;;;;;;;23.22;38.43;99310.69;4329337;33;32694;-60
2023/04/16 01:09:29;;;;;;;7.10;2.47;;;;;;;23.20;38.42;99318.25;4330689;33;34050;-62
2023/04/16 01:11:56;;;;;;;6.55;2.50;;;;;;;23.20;38.45;99312.81;4330900;33;34055;-61
2023/04/16 01:14:24;;;;;;;4.50;2.45;;;;;;;23.20;38.46;99312.81;4330653;33;33226;-61
2023/04/16 01:16:51;;;;;;;5.45;2.70;;;;;;;23.18;38.46;99315.78;4330505;33;33711;-61
2023/04/16 01:19:19;;;;;;;6.37;2.40;;;;;;;23.19;38.48;99311.16;4331056;33;34624;-61
2023/04/16 01:21:46;;;;;;;9.43;2.70;;;;;;;23.19;38.53;99308.44;4330272;33;34655;-62
2023/04/16 01:24:14;;;;;;;4.68;2.65;;;;;;;23.15;38.62;99308.91;4330698;33;34354;-62
2023/04/16 01:26:42;;;;;;;5.82;2.37;;;;;;;23.12;38.67;99311.25;4330790;33;34488;-61
2023/04/16 01:29:09;;;;;;;6.80;2.20;;;;;;;23.08;38.72;99315.53;4317508;33;34108;-61
2023/04/16 01:31:37;;;;;;;6.93;2.37;;;;;;;23.05;38.78;99319.56;4330732;33;33716;-61
2023/04/16 01:34:05;;;;;;;7.07;2.40;;;;;;;23.05;38.85;99313.28;4330931;33;32956;-61
2023/04/16 01:36:34;;;;;;;7.90;2.45;;;;;;;23.04;38.82;99323.34;4330152;33;33966;-61
2023/04/16 01:39:02;;;;;;;4.40;2.40;;;;;;;23.02;38.78;99316.47;4330472;33;34145;-61
2023/04/16 01:41:30;;;;;;;5.35;2.22;;;;;;;23.01;38.82;99317.53;4317154;33;34002;-60
2023/04/16 01:43:57;;;;;;;5.32;2.30;;;;;;;22.99;38.90;99306.91;4330302;33;33211;-61
2023/04/16 01:46:29;;;;;;;9.90;3.12;;;;;;;22.99;38.92;99312.34;4330285;33;34880;-62
2023/04/16 01:48:57;;;;;;;4.95;2.42;;;;;;;22.99;38.92;99312.34;4330394;33;33752;-62
2023/04/16 01:51:26;;;;;;;4.95;2.53;;;;;;;22.98;38.90;99304.41;4329794;33;34753;-61
2023/04/16 01:53:53;;;;;;;6.62;2.42;;;;;;;22.97;38.93;99316.34;4330411;33;33636;-61
2023/04/16 01:56:20;;;;;;;4.35;2.30;;;;;;;23.03;38.80;99316.22;4317168;33;34054;-62
2023/04/16 01:58:48;;;;;;;4.78;2.20;;;;;;;23.07;38.68;99308.44;4329742;33;34116;-61
2023/04/16 02:01:16;;;;;;;5.93;2.97;;;;;;;23.09;38.60;99323.47;4330348;33;34464;-62
2023/04/16 02:03:44;;;;;;;7.78;2.28;;;;;;;23.11;38.60;99320.50;4330480;33;34175;-61
2023/04/16 02:06:12;;;;;;;5.75;2.30;;;;;;;23.13;38.52;99310.22;4331243;33;33930;-62
2023/04/16 02:08:40;;;;;;;6.53;2.40;;;;;;;23.12;38.56;99319.44;4332472;33;34569;-62
2023/04/16 02:11:08;;;;;;;9.10;2.95;;;;;;;23.13;38.55;99315.66;4332026;33;34879;-61
2023/04/16 02:13:35;;;;;;;6.28;2.33;;;;;;;23.14;38.51;99320.88;4331811;33;33901;-61
2023/04/16 02:16:04;;;;;;;5.62;2.58;;;;;;;23.13;38.53;99324.66;4332205;33;33764;-62
2023/04/16 02:18:33;;;;;;;;;;;;;;;23.14;38.56;99326.31;4332842;33;33693;-61
2023/04/16 02:21:01;;;;;;;8.18;2.40;;;;;;;23.23;38.35;99334.12;4332213;33;34168;-61
2023/04/16 02:23:29;;;;;;;5.28;2.58;;;;;;;23.16;38.44;99331.50;4332123;33;33711;-61
2023/04/16 02:25:58;;;;;;;6.95;2.67;;;;;;;23.13;38.50;99338.25;4332544;33;34044;-61
2023/04/16 02:28:25;;;;;;;6.62;2.58;;;;;;;23.13;38.52;99337.44;4331672;33;34012;-61
2023/04/16 02:30:53;;;;;;;7.05;2.45;;;;;;;23.11;38.52;99340.38;4332133;33;33560;-60
2023/04/16 02:33:20;;;;;;;5.10;2.20;;;;;;;23.11;38.54;99336.84;4318797;33;33612;-61
2023/04/16 02:35:48;;;;;;;5.05;2.60;;;;;;;23.12;38.53;99338.47;4331568;33;34307;-61
2023/04/16 02:38:16;;;;;;;6.00;2.58;;;;;;;23.11;38.50;99326.78;4331930;33;34007;-60
2023/04/16 02:40:43;;;;;;;6.32;2.12;;;;;;;23.12;38.50;99331.16;4332326;33;34708;-61
2023/04/16 02:43:11;;;;;;;5.62;2.17;;;;;;;23.11;38.52;99331.37;4331429;33;33268;-61
2023/04/16 02:45:38;;;;;;;4.05;1.92;;;;;;;23.11;38.49;99326.78;4332043;33;34163;-61
2023/04/16 02:48:07;;;;;;;6.68;2.65;;;;;;;23.11;38.49;99334.09;4330226;33;33835;-62
2023/04/16 02:50:35;;;;;;;8.85;2.58;;;;;;;23.11;38.48;99337.66;4331745;33;33885;-60
2023/04/16 02:53:03;;;;;;;5.80;1.90;;;;;;;23.11;38.48;99336.84;4332162;33;34321;-61
2023/04/16 02:55:30;;;;;;;6.03;2.50;;;;;;;23.11;38.49;99342.28;4332168;33;34717;-61
2023/04/16 02:57:58;;;;;;;6.87;2.30;;;;;;;23.11;38.48;99334.09;4331354;33;34681;-60
2023/04/16 03:00:25;;;;;;;4.40;2.40;;;;;;;23.11;38.49;99342.28;4331970;33;34915;-60
2023/04/16 03:02:53;;;;;;;5.47;2.22;;;;;;;23.10;38.54;99338.72;4331912;33;33612;-61
2023/04/16 03:05:21;;;;;;;3.87;2.17;;;;;;;23.11;38.55;99343.09;4331705;33;34755;-61
2023/04/16 03:07:55;;;;;;;7.22;2.53;;;;;;;23.11;38.53;99342.28;4332009;33;33684;-61
2023/04/16 03:10:23;;;;;;;6.90;2.35;;;;;;;23.11;38.47;99345.00;4331763;33;33749;-61
2023/04/16 03:12:50;;;;;;;4.78;2.40;;;;;;;23.10;38.48;99343.34;4331439;33;33601;-61
2023/04/16 03:15:18;;;;;;;3.53;1.92;;;;;;;23.11;38.50;99347.72;4331939;33;33976;-60
2023/04/16 03:17:45;;;;;;;6.05;2.35;;;;;;;23.11;38.48;99347.72;4330805;33;34354;-62
2023/04/16 03:20:13;;;;;;;4.50;2.08;;;;;;;23.09;38.51;99344.41;4331335;33;34752;-61
2023/04/16 03:22:40;;;;;;;5.53;2.33;;;;;;;23.09;38.49;99338.97;4331786;33;33471;-60
2023/04/16 03:25:08;;;;;;;4.80;2.50;;;;;;;23.11;38.52;99345.00;4331715;33;35538;-61
2023/04/16 03:27:36;;;;;;;8.68;2.53;;;;;;;23.10;38.47;99351.50;4331103;33;34771;-61
2023/04/16 03:30:05;;;;;;;5.00;2.40;;;;;;;23.10;38.46;99357.78;4331831;33;34678;-61
2023/04/16 03:32:32;;;;;;;4.40;2.43;;;;;;;23.09;38.43;99361.56;4331787;33;33356;-61
2023/04/16 03:35:05;;;;;;;5.20;2.25;;;;;;;23.11;38.41;99362.16;4331347;33;33171;-60
2023/04/16 03:37:33;;;;;;;8.00;2.58;;;;;;;23.09;38.42;99377.06;4331245;33;33717;-62
2023/04/16 03:40:01;;;;;;;4.47;2.15;;;;;;;23.09;38.42;99372.44;4318380;33;33750;-62
2023/04/16 03:42:28;;;;;;;5.20;2.35;;;;;;;23.08;38.40;99376.25;4331472;33;33219;-61
2023/04/16 03:44:56;;;;;;;5.05;2.45;;;;;;;23.09;38.42;99385.22;4331914;33;34851;-61
2023/04/16 03:47:24;;;;;;;5.07;2.45;;;;;;;23.07;38.45;99380.00;4331155;33;34033;-61
2023/04/16 03:49:52;;;;;;;3.87;1.90;;;;;;;23.08;38.43;99381.69;4318309;33;34259;-61
2023/04/16 03:52:20;;;;;;;6.78;2.55;;;;;;;23.08;38.41;99397.16;4331444;33;33706;-60
2023/04/16 03:54:47;;;;;;;5.47;2.35;;;;;;;23.07;38.41;99406.37;4331438;33;34606;-61
2023/04/16 03:57:15;;;;;;;5.80;2.28;;;;;;;23.08;38.39;99399.87;4331447;33;34119;-60
2023/04/16 03:59:43;;;;;;;6.35;2.35;;;;;;;23.07;38.40;99401.78;4331424;33;33843;-60
2023/04/16 04:02:10;;;;;;;7.22;2.58;;;;;;;23.07;38.45;99399.06;4331522;33;34118;-60
2023/04/16 04:04:38;;;;;;;4.78;2.40;;;;;;;23.08;38.45;99397.16;4331199;33;34205;-61
2023/04/16 04:07:06;;;;;;;4.57;2.15;;;;;;;23.07;38.46;99390.87;4331493;33;33597;-61
2023/04/16 04:09:33;;;;;;;4.07;2.10;;;;;;;23.07;38.46;99392.78;4331591;33;34393;-61
2023/04/16 04:12:02;;;;;;;5.45;2.00;;;;;;;23.08;38.44;99403.47;4331057;33;33602;-61
2023/04/16 04:14:30;;;;;;;5.43;2.17;;;;;;;23.09;38.42;99401.56;4318254;33;34684;-61
2023/04/16 04:16:59;;;;;;;5.68;2.03;;;;;;;23.07;38.39;99392.78;4331409;33;34083;-61
2023/04/16 04:19:27;;;;;;;4.80;2.70;;;;;;;23.07;38.45;99390.06;4330833;33;34804;-61
2023/04/16 04:21:54;;;;;;;5.40;2.25;;;;;;;23.07;38.50;99390.87;4331489;33;34132;-61
2023/04/16 04:24:22;;;;;;;4.32;2.37;;;;;;;23.06;38.56;99402.84;4331544;33;33907;-61
2023/04/16 04:26:50;;;;;;;3.30;1.95;;;;;;;23.06;38.58;99412.91;4330657;33;34792;-61
2023/04/16 04:29:17;;;;;;;7.12;2.30;;;;;;;23.05;38.60;99413.97;4331240;33;33888;-61
2023/04/16 04:31:45;;;;;;;4.15;1.90;;;;;;;23.06;38.59;99418.34;4331057;33;33553;-60
2023/04/16 04:34:13;;;;;;;7.78;2.25;;;;;;;23.05;38.61;99419.41;4317861;33;33723;-61
2023/04/16 04:36:40;;;;;;;5.18;2.50;;;;;;;23.06;38.62;99421.06;4331541;33;34973;-60
2023/04/16 04:39:08;;;;;;;4.93;1.95;;;;;;;23.06;38.60;99429.22;4331010;33;34858;-60
2023/04/16 04:41:36;;;;;;;4.00;2.22;;;;;;;23.05;38.63;99422.97;4330969;33;35015;-60
2023/04/16 04:44:03;;;;;;;6.90;2.45;;;;;;;23.07;38.59;99425.44;4331089;33;33728;-60
2023/04/16 04:46:31;;;;;;;5.15;2.33;;;;;;;23.05;38.61;99422.97;4331419;33;33855;-61
2023/04/16 04:48:59;;;;;;;4.80;2.03;;;;;;;23.06;38.62;99413.72;4330709;33;34033;-61
2023/04/16 04:51:26;;;;;;;6.00;2.28;;;;;;;23.06;38.65;99419.16;4331043;33;33605;-61
2023/04/16 04:53:54;;;;;;;5.32;2.45;;;;;;;23.05;38.66;99413.97;4317961;33;33948;-61
2023/04/16 04:56:21;;;;;;;4.15;2.00;;;;;;;23.06;38.67;99421.06;4330964;33;34167;-60
2023/04/16 04:58:49;;;;;;;4.47;2.05;;;;;;;23.06;38.73;99421.91;4331116;33;34068;-61
2023/04/16 05:01:18;;;;;;;4.53;2.10;;;;;;;23.05;38.72;99425.69;4331244;33;34123;-61
2023/04/16 05:03:46;;;;;;;7.90;2.40;;;;;;;23.06;38.74;99437.41;4330529;33;34671;-60
2023/04/16 05:06:14;;;;;;;4.37;2.00;;;;;;;23.06;38.72;99429.22;4331230;33;34921;-61
2023/04/16 05:08:41;;;;;;;5.90;2.50;;;;;;;23.06;38.75;99427.34;4330934;33;33855;-61
2023/04/16 05:11:09;;;;;;;4.18;2.10;;;;;;;23.06;38.76;99427.34;4330842;33;33520;-61
2023/04/16 05:13:37;;;;;;;5.90;2.00;;;;;;;23.07;38.74;99436.31;4330872;33;35035;-61
2023/04/16 05:16:04;;;;;;;7.80;2.37;;;;;;;23.06;38.77;99434.66;4331180;33;33667;-60
2023/04/16 05:18:32;;;;;;;6.28;2.50;;;;;;;23.05;38.81;99439.28;4330594;33;33563;-61
2023/04/16 05:21:00;;;;;;;5.03;2.53;;;;;;;23.06;38.80;99440.94;4330907;33;33006;-61
2023/04/16 05:23:27;;;;;;;5.55;2.55;;;;;;;23.06;38.76;99440.94;4330662;33;33541;-61
2023/04/16 05:25:55;;;;;;;4.78;1.87;;;;;;;23.05;38.79;99446.63;4330608;33;34892;-61
2023/04/16 05:28:22;;;;;;;3.03;1.80;;;;;;;23.05;38.82;99444.72;4330643;33;34346;-61
2023/04/16 05:30:50;;;;;;;7.43;2.67;;;;;;;23.07;38.85;99444.50;4330884;33;33696;-61
2023/04/16 05:33:17;;;;;;;4.32;2.12;;;;;;;23.05;38.85;99447.44;4330448;33;34814;-61
2023/04/16 05:35:45;;;;;;;4.45;2.00;;;;;;;23.05;38.84;99458.34;4330340;33;34844;-61
2023/04/16 05:38:12;;;;;;;5.28;1.95;;;;;;;23.05;38.86;99455.62;4330532;33;34781;-60
2023/04/16 05:40:40;;;;;;;7.65;2.40;;;;;;;23.05;38.85;99455.62;4331433;33;33136;-60
2023/04/16 05:43:07;;;;;;;5.32;2.50;;;;;;;23.05;38.82;99446.63;4332418;33;33980;-61
2023/04/16 05:45:39;;;;;;;5.78;2.00;;;;;;;23.06;38.89;99451.00;4332464;33;33839;-61
2023/04/16 05:48:11;;;;;;;5.25;2.28;;;;;;;23.06;38.96;99451.00;4332203;33;33974;-60
2023/04/16 05:50:38;;;;;;;5.57;1.90;;;;;;;23.05;38.96;99443.91;4332207;33;34838;-61
2023/04/16 05:53:06;;;;;;;5.82;2.08;;;;;;;23.05;38.96;99450.19;4332226;33;34659;-61
2023/04/16 05:55:35;;;;;;;8.52;2.28;;;;;;;23.05;38.99;99449.34;4331587;33;34048;-61
2023/04/16 05:58:03;;;;;;;6.15;2.78;;;;;;;23.07;38.95;99455.38;4331844;33;33438;-62
2023/04/16 06:00:31;;;;;;;4.43;1.80;;;;;;;23.06;38.99;99454.56;4331250;33;34055;-61
2023/04/16 06:02:59;;;;;;;6.87;2.28;;;;;;;23.06;38.94;99457.28;4303727;33;34812;-61
2023/04/16 06:05:27;;;;;;;3.58;1.87;;;;;;;23.08;38.96;99462.47;4317775;33;33808;-61
2023/04/16 06:07:55;;;;;;;4.18;2.03;;;;;;;23.07;38.96;99456.19;4317453;33;34677;-60
2023/04/16 06:10:23;;;;;;;4.05;1.98;;;;;;;23.07;38.97;99464.38;4317190;33;33150;-61
2023/04/16 06:12:50;;;;;;;5.22;2.47;;;;;;;23.06;39.11;99465.44;4318840;33;33269;-61
2023/04/16 06:15:18;;;;;;;6.93;2.70;;;;;;;23.07;39.09;99468.97;4332023;33;34894;-61
2023/04/16 06:17:45;;;;;;;6.55;2.05;;;;;;;23.07;39.11;99467.09;4331578;33;33843;-60
2023/04/16 06:20:13;;;;;;;5.45;2.15;;;;;;;23.07;39.04;99467.09;4332165;33;33368;-61
2023/04/16 06:22:40;;;;;;;5.03;2.40;;;;;;;23.07;38.98;99464.38;4332349;33;33643;-61
2023/04/16 06:25:08;;;;;;;5.28;2.22;;;;;;;23.09;38.94;99472.31;4331768;33;33842;-60
2023/04/16 06:27:36;;;;;;;4.55;2.00;;;;;;;23.07;39.05;99469.81;4318677;33;33836;-61
2023/04/16 06:30:04;;;;;;;4.78;2.00;;;;;;;23.07;39.12;99471.69;4332068;33;33480;-61
2023/04/16 06:32:31;;;;;;;6.00;2.12;;;;;;;23.07;39.11;99471.69;4331537;33;34811;-61
2023/04/16 06:34:59;;;;;;;7.43;3.03;;;;;;;23.08;39.13;99471.50;4332113;33;33772;-61
2023/04/16 06:37:27;;;;;;;5.12;2.12;;;;;;;23.08;39.12;99476.94;4331613;33;34073;-61
2023/04/16 06:39:55;;;;;;;6.00;2.10;;;;;;;23.07;39.10;99469.81;4331277;33;33316;-62
2023/04/16 06:42:22;;;;;;;4.87;2.00;;;;;;;23.08;39.09;99471.50;4329464;33;33835;-61
2023/04/16 06:44:50;;;;;;;6.82;1.95;;;;;;;23.10;39.12;99473.97;4331580;33;33591;-62
2023/04/16 06:47:18;;;;;;;5.47;2.33;;;;;;;23.08;39.13;99466.03;4317604;33;34882;-61
2023/04/16 06:49:45;;;;;;;7.30;2.37;;;;;;;23.09;39.14;99448.66;4331539;33;34390;-61
2023/04/16 06:52:13;;;;;;;4.60;2.20;;;;;;;23.09;39.13;99440.50;4330694;33;34289;-61
2023/04/16 06:54:40;;;;;;;5.12;2.05;;;;;;;23.09;39.16;99447.81;4331141;33;34139;-60
2023/04/16 06:57:08;;;;;;;4.05;1.90;;;;;;;23.09;39.17;99447.81;4332225;33;33911;-61
2023/04/16 06:59:35;;;;;;;5.93;2.25;;;;;;;23.09;39.13;99448.66;4331683;33;33351;-61
2023/04/16 07:02:03;;;;;;;4.80;1.70;;;;;;;23.08;39.13;99433.38;4331246;33;34077;-63
2023/04/16 07:04:31;;;;;;;6.40;1.92;;;;;;;23.09;39.14;99456.81;4318195;33;34013;-60
2023/04/16 07:06:59;;;;;;;5.03;2.03;;;;;;;23.09;39.05;99458.72;4329268;33;34017;-61
2023/04/16 07:09:26;;;;;;;5.10;1.77;;;;;;;23.09;39.08;99450.53;4317519;33;34247;-61
2023/04/16 07:11:54;;;;;;;6.20;2.17;;;;;;;23.10;39.08;99455.75;4331251;33;33792;-62
2023/04/16 07:14:21;;;;;;;6.20;3.25;;;;;;;23.12;39.01;99475.37;4331911;33;33763;-61
2023/04/16 07:16:49;;;;;;;8.38;3.10;;;;;;;23.08;38.12;99459.75;4329192;33;33973;-58
2023/04/16 07:19:17;;;;;;;7.68;2.90;;;;;;;23.06;37.92;99457.28;4325531;33;33091;-60
2023/04/16 07:21:45;;;;;;;9.00;2.55;;;;;;;23.07;38.11;99456.19;4330465;33;34063;-60
2023/04/16 07:24:12;;;;;;;6.18;2.33;;;;;;;23.07;38.25;99463.53;4305598;33;33911;-60
2023/04/16 07:26:40;;;;;;;7.12;2.80;;;;;;;23.07;38.22;99469.81;4331690;33;34352;-61
2023/04/16 07:29:07;;;;;;;5.40;2.60;;;;;;;23.08;38.19;99471.50;4331771;33;33325;-60
2023/04/16 07:31:35;;;;;;;4.60;2.65;;;;;;;23.08;38.12;99468.78;4329876;33;33964;-63
2023/04/16 07:34:03;;;;;;;6.78;2.58;;;;;;;23.08;38.06;99467.91;4318364;33;33868;-63
2023/04/16 07:36:32;;;;;;;8.38;2.75;;;;;;;23.09;37.90;99464.97;4331239;33;34140;-64
2023/04/16 07:38:59;;;;;;;4.62;2.12;;;;;;;23.11;37.84;99472.91;4329634;33;32824;-65
2023/04/16 07:41:28;;;;;;;7.97;2.62;;;;;;;23.20;37.77;99466.06;4331564;33;33813;-63
2023/04/16 07:43:55;;;;;;;6.28;2.20;;;;;;;23.26;37.83;99467.03;4331519;33;34078;-63
2023/04/16 07:46:23;;;;;;;5.68;2.58;;;;;;;23.29;37.93;99470.09;4331105;33;34280;-64
2023/04/16 07:48:56;;;;;;;7.47;2.60;;;;;;;23.37;38.02;99472.50;4331592;33;33437;-63
2023/04/16 07:51:24;;;;;;;8.30;2.53;;;;;;;23.48;38.02;99472.75;4330782;33;34711;-67
2023/04/16 07:53:52;;;;;;;7.85;2.20;;;;;;;23.58;38.16;99473.00;4316537;33;34653;-61
2023/04/16 07:56:19;;;;;;;5.22;2.37;;;;;;;23.70;38.20;99473.88;4316822;33;33334;-63
2023/04/16 07:58:47;;;;;;;5.15;2.15;;;;;;;23.82;38.00;99471.97;4317009;33;33428;-62
2023/04/16 08:01:14;;;;;;;8.88;2.40;;;;;;;23.94;37.88;99474.69;4316269;33;33108;-63
2023/04/16 08:03:42;;;;;;;5.28;2.20;;;;;;;24.04;37.82;99476.81;4316426;33;34036;-62
2023/04/16 08:06:10;;;;;;;7.97;2.45;;;;;;;24.13;37.76;99475.41;4303754;33;31919;-63
2023/04/16 08:08:37;;;;;;;5.95;2.22;;;;;;;24.23;37.67;99480.25;4307324;33;33386;-64
2023/04/16 08:11:05;;;;;;;7.95;2.45;;;;;;;24.31;37.62;99477.16;4330835;33;33897;-64
2023/04/16 08:13:33;;;;;;;13.48;2.47;;;;;;;24.40;37.57;99475.75;4330800;33;34992;-63
2023/04/16 08:16:00;;;;;;;3.95;2.20;;;;;;;24.49;37.50;99484.38;4330550;33;33728;-61
2023/04/16 08:18:29;;;;;;;5.50;1.92;;;;;;;24.57;37.52;99484.81;4331023;33;32814;-64
2023/04/16 08:20:56;;;;;;;6.50;2.42;;;;;;;24.67;37.42;99482.31;4331261;33;34660;-62
2023/04/16 08:23:23;;;;;;;8.10;2.37;;;;;;;24.76;37.33;99479.16;4325855;33;33988;-62
2023/04/16 08:25:51;;;;;;;4.57;2.15;;;;;;;24.84;37.28;99479.62;4318205;33;33765;-64
2023/04/16 08:28:19;;;;;;;6.50;2.45;;;;;;;24.92;37.21;99481.13;4320485;33;33067;-64
2023/04/16 08:30:46;;;;;;;8.82;2.60;;;;;;;24.98;37.16;99487.50;4330410;33;34978;-62
2023/04/16 08:33:14;;;;;;;7.62;2.62;;;;;;;25.04;37.15;99487.38;4330513;33;34112;-63
2023/04/16 08:35:42;;;;;;;7.68;2.33;;;;;;;25.11;37.07;99485.34;4330905;33;33967;-64
2023/04/16 08:38:09;;;;;;;8.50;2.40;;;;;;;25.19;37.01;99493.16;4330273;33;33241;-63
2023/04/16 08:40:38;;;;;;;6.82;2.78;;;;;;;25.26;36.97;99494.88;4331013;33;33859;-63
2023/04/16 08:43:10;;;;;;;4.85;1.85;;;;;;;25.33;36.90;99481.91;4330056;33;33868;-63
2023/04/16 08:45:37;;;;;;;5.70;2.35;;;;;;;25.40;36.82;99494.31;4317112;33;34779;-62
2023/04/16 08:48:05;;;;;;;6.60;2.40;;;;;;;25.49;36.74;99497.47;4305737;33;33502;-62
2023/04/16 08:50:33;;;;;;;6.90;2.20;;;;;;;25.56;36.63;99492.69;4330536;33;34096;-62
2023/04/16 08:53:08;;;;;;;6.30;2.30;;;;;;;25.63;36.60;99497.97;4330232;33;33629;-65
2023/04/16 08:55:37;;;;;;;4.68;2.20;;;;;;;25.68;36.54;99487.94;4329775;33;33828;-63
2023/04/16 08:58:14;;;;;;;4.07;2.00;;;;;;;25.75;36.45;99490.53;4322569;33;33039;-61
2023/04/16 09:00:41;;;;;;;4.40;1.87;;;;;;;25.81;36.42;99491.47;4317329;33;33701;-65
2023/04/16 09:03:09;;;;;;;5.55;1.98;;;;;;;25.84;36.35;99502.72;4317347;33;33889;-63
2023/04/16 09:05:38;;;;;;;7.10;2.10;;;;;;;25.85;36.31;99509.84;4330662;33;34670;-64
2023/04/16 09:08:05;;;;;;;3.22;1.75;;;;;;;25.88;36.28;99512.09;4330315;33;33420;-63
2023/04/16 09:10:33;;;;;;;5.82;1.90;;;;;;;25.88;36.21;99503.88;4317211;33;34735;-63
2023/04/16 09:13:01;;;;;;;5.40;2.20;;;;;;;25.89;36.15;99510.19;4330545;33;33993;-62
2023/04/16 09:15:28;;;;;;;6.45;2.15;;;;;;;25.88;36.14;99514.81;4329158;33;33567;-62
2023/04/16 09:17:56;;;;;;;3.53;1.92;;;;;;;25.88;36.10;99519.44;4316887;33;33468;-63
2023/04/16 09:20:24;;;;;;;5.85;2.00;;;;;;;25.86;36.10;99518.88;4317115;33;33300;-62
2023/04/16 09:22:51;;;;;;;4.05;2.08;;;;;;;25.85;36.06;99519.94;4329977;33;33834;-62
2023/04/16 09:25:21;;;;;;;4.37;2.20;;;;;;;25.84;36.12;99523.78;4330062;33;34505;-63
2023/04/16 09:27:49;;;;;;;5.68;2.17;;;;;;;25.81;36.07;99527.81;4330336;33;33346;-62
2023/04/16 09:30:24;;;;;;;4.57;1.87;;;;;;;25.80;36.05;99528.06;4330066;33;33584;-62
2023/04/16 09:33:10;;;;;;;6.18;2.35;;;;;;;25.78;36.06;99532.94;4330303;33;34720;-62
2023/04/16 09:35:45;;;;;;;5.90;2.17;;;;;;;25.75;36.09;99536.16;4318580;33;34833;-62
2023/04/16 09:38:13;;;;;;;6.97;1.95;;;;;;;25.75;36.04;99534.25;4304716;33;34332;-62
2023/04/16 09:40:40;;;;;;;4.57;1.90;;;;;;;25.68;36.05;99534.41;4330271;33;34121;-63
2023/04/16 09:43:15;;;;;;;5.87;2.03;;;;;;;25.66;36.04;99533.84;4329815;33;34011;-66
2023/04/16 09:45:49;;;;;;;4.85;1.90;;;;;;;25.63;36.02;99531.59;4329251;33;33871;-63
2023/04/16 09:48:30;;;;;;;6.90;2.55;;;;;;;25.61;36.06;99533.75;4329029;33;33113;-63
2023/04/16 09:50:58;;;;;;;6.90;2.40;;;;;;;25.59;36.08;99540.53;4317174;33;34049;-63
2023/04/16 09:53:29;;;;;;;6.55;2.03;;;;;;;25.54;36.15;99532.25;4317045;33;33648;-64
2023/04/16 09:55:57;;;;;;;5.07;2.08;;;;;;;25.50;36.18;99529.16;4315471;33;34426;-62
2023/04/16 09:58:25;;;;;;;7.87;2.35;;;;;;;25.47;36.24;99537.88;4315318;33;33503;-61
2023/04/16 10:01:08;;;;;;;7.68;2.70;;;;;;;25.44;36.31;99532.91;4322517;33;34055;-65
2023/04/16 10:03:38;;;;;;;6.12;2.53;;;;;;;25.38;33.38;99531.97;4329839;33;34209;-64
2023/04/16 10:06:19;;;;;;;6.33;2.60;;;;;;;25.20;31.62;99529.47;4330089;33;34548;-64
2023/04/16 10:08:51;;;;;;;6.53;2.55;;;;;;;24.99;31.19;99522.75;4329652;33;33100;-62
2023/04/16 10:11:19;;;;;;;5.37;2.40;;;;;;;24.74;31.60;99530.44;4329928;33;33815;-64
2023/04/16 10:13:47;;;;;;;8.52;2.65;;;;;;;24.63;32.53;99527.50;4322550;33;33801;-61
2023/04/16 10:16:15;;;;;;;7.25;2.47;;;;;;;24.62;32.87;99525.00;4301780;33;32448;-62
2023/04/16 10:18:43;;;;;;;6.80;2.30;;;;;;;24.73;32.88;99523.34;4315015;33;33321;-62
2023/04/16 10:21:12;;;;;;;5.65;2.30;;;;;;;24.67;33.42;99525.97;4314626;33;33786;-62
2023/04/16 10:23:40;;;;;;;9.30;2.20;;;;;;;24.67;33.69;99517.78;4314244;33;33999;-65
2023/04/16 10:26:07;;;;;;;6.90;2.00;;;;;;;24.75;34.00;99521.19;4315000;33;34080;-63
2023/04/16 10:28:37;;;;;;;;;;;;;;;24.84;34.12;99519.72;4317314;33;33390;-64
2023/04/16 10:31:07;;;;;;;6.47;1.95;;;;;;;25.04;34.03;99516.56;4317968;33;34784;-64
2023/04/16 10:33:38;;;;;;;7.15;1.90;;;;;;;25.07;34.26;99518.81;4318087;33;34048;-63
2023/04/16 10:36:13;;;;;;;6.05;1.90;;;;;;;25.14;34.35;99512.16;4305956;33;33589;-65
2023/04/16 10:38:48;;;;;;;7.35;2.05;;;;;;;25.24;34.39;99513.44;4316841;33;33471;-63
2023/04/16 10:41:15;;;;;;;4.87;1.87;;;;;;;25.26;34.43;99514.81;4317203;33;34305;-63
2023/04/16 10:43:49;;;;;;;8.48;2.10;;;;;;;25.34;34.46;99505.41;4315215;33;33709;-62
2023/04/16 10:46:23;;;;;;;6.85;2.20;;;;;;;25.39;34.47;99500.03;4316729;33;34476;-63
2023/04/16 10:48:53;;;;;;;5.03;2.00;;;;;;;25.46;34.45;99506.19;4328500;33;34094;-62
2023/04/16 10:51:31;;;;;;;3.17;1.70;;;;;;;25.49;34.47;99500.19;4331087;33;34245;-64
2023/04/16 10:54:03;;;;;;;5.07;2.08;;;;;;;25.53;34.45;99498.63;4331622;33;34114;-65
2023/04/16 10:56:31;;;;;;;4.35;1.85;;;;;;;25.55;34.52;99491.00;4331586;33;35307;-64
2023/04/16 10:58:59;;;;;;;4.10;1.67;;;;;;;25.57;34.49;99490.78;4317703;33;33264;-72
2023/04/16 11:01:31;;;;;;;5.97;2.10;;;;;;;25.58;34.52;99487.78;4317942;33;33546;-63
2023/04/16 11:04:00;;;;;;;5.37;1.58;;;;;;;25.59;34.59;99486.72;4330929;33;35106;-65
2023/04/16 11:06:28;;;;;;;;;;;;;;;25.59;34.60;99483.97;4331204;33;34087;-65
2023/04/16 11:08:55;;;;;;;3.70;2.00;;;;;;;25.69;34.44;99484.16;4331877;33;32664;-64
2023/04/16 11:11:23;;;;;;;7.45;2.10;;;;;;;25.60;34.57;99482.91;4331161;33;33959;-66
2023/04/16 11:13:54;;;;;;;5.50;1.67;;;;;;;25.58;34.63;99481.50;4331093;33;35208;-63
2023/04/16 11:16:21;;;;;;;4.03;1.73;;;;;;;25.56;34.67;99492.69;4318612;33;34615;-63
2023/04/16 11:18:49;;;;;;;6.75;1.67;;;;;;;25.55;34.69;99482.81;4315596;33;33198;-65
2023/04/16 11:21:18;;;;;;;5.60;1.80;;;;;;;25.53;34.72;99493.16;4303673;33;33659;-65
2023/04/16 11:23:51;;;;;;;3.95;1.62;;;;;;;25.51;34.74;99489.87;4304108;33;34753;-62
2023/04/16 11:26:27;;;;;;;5.05;1.87;;;;;;;25.51;34.76;99480.81;4303977;33;34563;-63
2023/04/16 11:28:55;;;;;;;5.40;1.80;;;;;;;25.48;34.78;99484.06;4316833;33;33066;-66
2023/04/16 11:31:23;;;;;;;4.05;2.10;;;;;;;25.45;34.79;99488.13;4325805;33;34058;-63
2023/04/16 11:33:51;;;;;;;6.50;2.58;;;;;;;25.44;34.81;99481.81;4330888;33;33696;-66
2023/04/16 11:36:18;;;;;;;5.05;1.95;;;;;;;25.42;34.81;99486.72;4330771;33;33078;-64
2023/04/16 11:38:46;;;;;;;9.55;3.25;;;;;;;25.40;34.91;99486.12;4330652;33;33170;-63